Time;durP1;ratioP1;P1;durP2;ratioP2;P2;SDS_P1;SDS_P2;PMS_P1;PMS_P2;Temp;Humidity;BMP_temperature;BMP_pressure;BME280_temperature;BME280_humidity;BME280_pressure;Samples;Min_cycle;Max_cycle;Signal;HPM_P1;HPM_P2
2023/06/27 02:01:39;;;;;;;8.32;6.32;;;;;;;;;;4653159;27;19992;-80
2023/06/27 02:04:06;;;;;;;15.52;7.65;;;;;;;;;;4341924;33;20070;-80
2023/06/27 02:06:32;;;;;;;8.07;7.28;;;;;;;;;;4341655;33;20095;-79
2023/06/27 02:08:58;;;;;;;16.48;8.02;;;;;;;;;;4342615;33;20048;-80
2023/06/27 02:11:24;;;;;;;10.73;7.82;;;;;;;;;;4342395;33;20369;-81
2023/06/27 02:13:50;;;;;;;10.18;8.05;;;;;;;;;;4341413;33;20086;-81
2023/06/27 02:16:23;;;;;;;12.00;8.48;;;;;;;;;;4342715;33;20065;-81
2023/06/27 02:18:50;;;;;;;19.35;8.70;;;;;;;;;;4339084;33;20052;-80
2023/06/27 02:21:16;;;;;;;11.02;8.23;;;;;;;;;;4340505;33;20098;-80
2023/06/27 02:23:42;;;;;;;12.07;9.45;;;;;;;;;;4336058;33;20041;-80
2023/06/27 02:26:10;;;;;;;14.73;8.88;;;;;;;;;;4338142;33;20091;-79
2023/06/27 02:28:42;;;;;;;16.58;10.65;;;;;;;;;;4314432;33;20044;-79
2023/06/27 02:31:10;;;;;;;46.05;11.57;;;;;;;;;;4326186;33;20036;-81
2023/06/27 02:33:36;;;;;;;19.80;10.40;;;;;;;;;;4323309;33;20095;-80
2023/06/27 02:36:02;;;;;;;25.23;11.30;;;;;;;;;;4334272;33;20032;-79
2023/06/27 02:38:29;;;;;;;24.10;10.52;;;;;;;;;;4339384;33;20122;-79
2023/06/27 02:40:54;;;;;;;28.30;10.73;;;;;;;;;;4339010;33;20036;-80
2023/06/27 02:43:21;;;;;;;18.25;11.57;;;;;;;;;;4338081;33;20052;-79
2023/06/27 02:45:47;;;;;;;37.92;12.93;;;;;;;;;;4338225;33;20044;-81
2023/06/27 02:48:13;;;;;;;40.72;13.20;;;;;;;;;;4338401;33;20036;-79
2023/06/27 02:50:40;;;;;;;30.65;12.85;;;;;;;;;;4350605;32;20453;-79
2023/06/27 02:53:06;;;;;;;30.33;14.02;;;;;;;;;;4352364;32;20444;-78
2023/06/27 02:55:32;;;;;;;23.73;13.23;;;;;;;;;;4352656;32;20028;-79
2023/06/27 02:57:59;;;;;;;20.40;11.57;;;;;;;;;;4351181;32;20113;-80
2023/06/27 03:00:26;;;;;;;18.10;11.52;;;;;;;;;;4323448;33;20048;-78
2023/06/27 03:02:52;;;;;;;19.40;12.93;;;;;;;;;;4322533;33;20473;-78
2023/06/27 03:05:24;;;;;;;13.52;11.98;;;;;;;;;;4321501;33;20074;-78
2023/06/27 03:07:51;;;;;;;17.48;11.60;;;;;;;;;;4321452;33;20087;-79
2023/06/27 03:10:18;;;;;;;12.82;10.57;;;;;;;;;;4322024;33;20316;-78
2023/06/27 03:12:44;;;;;;;13.90;10.57;;;;;;;;;;4294286;33;20057;-78
2023/06/27 03:15:10;;;;;;;11.45;9.93;;;;;;;;;;4294121;33;20037;-78
2023/06/27 03:17:36;;;;;;;16.55;10.20;;;;;;;;;;4293481;33;20060;-79
2023/06/27 03:20:04;;;;;;;10.45;8.50;;;;;;;;;;4292353;33;20222;-79
2023/06/27 03:22:31;;;;;;;14.10;10.15;;;;;;;;;;4293651;33;20662;-78
2023/06/27 03:24:58;;;;;;;11.30;9.30;;;;;;;;;;4293190;33;20029;-79
2023/06/27 03:27:24;;;;;;;10.05;9.00;;;;;;;;;;4294384;33;20593;-79
2023/06/27 03:29:51;;;;;;;20.40;8.85;;;;;;;;;;4291872;33;20040;-79
2023/06/27 03:32:18;;;;;;;12.20;7.30;;;;;;;;;;4306634;33;20402;-82
2023/06/27 03:34:44;;;;;;;10.55;5.85;;;;;;;;;;4309154;33;20052;-77
2023/06/27 03:37:10;;;;;;;5.53;4.72;;;;;;;;;;4308987;33;20078;-81
2023/06/27 03:39:36;;;;;;;4.28;3.28;;;;;;;;;;4306460;33;20048;-80
2023/06/27 03:42:03;;;;;;;11.93;4.68;;;;;;;;;;4304768;33;20051;-77
2023/06/27 03:44:29;;;;;;;5.40;3.60;;;;;;;;;;4311146;33;20109;-78
2023/06/27 03:46:55;;;;;;;7.47;5.10;;;;;;;;;;4313643;33;20056;-79
2023/06/27 03:49:22;;;;;;;6.47;3.22;;;;;;;;;;4321207;33;20079;-80
2023/06/27 03:51:49;;;;;;;7.30;4.37;;;;;;;;;;4307137;33;20106;-78
2023/06/27 03:54:14;;;;;;;7.10;4.82;;;;;;;;;;4325606;33;20051;-78
2023/06/27 03:56:41;;;;;;;4.97;3.35;;;;;;;;;;4335887;33;20068;-79
2023/06/27 03:59:07;;;;;;;7.93;4.07;;;;;;;;;;4337961;33;20044;-80
2023/06/27 04:01:34;;;;;;;7.70;4.75;;;;;;;;;;4336031;33;20048;-79
2023/06/27 04:04:00;;;;;;;4.28;3.87;;;;;;;;;;4337492;33;20036;-80
2023/06/27 04:06:27;;;;;;;9.60;4.30;;;;;;;;;;4335546;33;20056;-80
2023/06/27 04:08:52;;;;;;;9.27;4.62;;;;;;;;;;4332739;33;20937;-80
2023/06/27 04:11:19;;;;;;;9.88;4.85;;;;;;;;;;4336176;33;20099;-79
2023/06/27 04:13:46;;;;;;;14.20;5.78;;;;;;;;;;4337379;33;20044;-78
2023/06/27 04:16:13;;;;;;;9.27;5.85;;;;;;;;;;4336849;33;20048;-79
2023/06/27 04:18:39;;;;;;;10.82;6.00;;;;;;;;;;4336574;33;20161;-79
2023/06/27 04:21:06;;;;;;;12.00;5.70;;;;;;;;;;4337489;33;20511;-79
2023/06/27 04:23:34;;;;;;;13.60;6.05;;;;;;;;;;4336717;33;20036;-79
2023/06/27 04:26:03;;;;;;;14.23;7.18;;;;;;;;;;4336401;33;20052;-78
2023/06/27 04:28:30;;;;;;;11.27;6.07;;;;;;;;;;4345667;33;20079;-79
2023/06/27 04:30:58;;;;;;;13.18;6.07;;;;;;;;;;4352184;32;20055;-80
2023/06/27 04:33:24;;;;;;;9.25;6.05;;;;;;;;;;4351649;32;20049;-78
2023/06/27 04:35:50;;;;;;;10.07;6.70;;;;;;;;;;4351636;32;20074;-78
2023/06/27 04:38:16;;;;;;;15.80;6.55;;;;;;;;;;4350470;32;20434;-78
2023/06/27 04:40:43;;;;;;;12.90;6.85;;;;;;;;;;4351237;32;20385;-78
2023/06/27 04:43:09;;;;;;;15.05;5.82;;;;;;;;;;4352154;32;20078;-78
2023/06/27 04:45:35;;;;;;;7.80;5.55;;;;;;;;;;4349627;32;20473;-79
2023/06/27 04:48:01;;;;;;;15.80;4.93;;;;;;;;;;4337106;33;20138;-78
2023/06/27 04:50:29;;;;;;;14.45;4.53;;;;;;;;;;4337041;33;20054;-80
2023/06/27 04:52:55;;;;;;;8.73;5.70;;;;;;;;;;4321513;33;20029;-78
2023/06/27 04:55:21;;;;;;;9.20;5.72;;;;;;;;;;4311786;33;20041;-78
2023/06/27 04:57:47;;;;;;;8.32;5.05;;;;;;;;;;4323581;33;20442;-77
2023/06/27 05:00:14;;;;;;;13.40;5.15;;;;;;;;;;4308644;33;20074;-77
2023/06/27 05:02:47;;;;;;;13.05;5.37;;;;;;;;;;4304284;33;20070;-77
2023/06/27 05:05:13;;;;;;;9.20;4.10;;;;;;;;;;4306982;33;20053;-77
2023/06/27 05:07:39;;;;;;;10.73;3.97;;;;;;;;;;4306224;33;20502;-80
2023/06/27 05:10:06;;;;;;;16.77;4.97;;;;;;;;;;4307347;33;20056;-79
2023/06/27 05:12:32;;;;;;;11.45;4.47;;;;;;;;;;4307415;33;20036;-79
2023/06/27 05:14:58;;;;;;;12.10;3.90;;;;;;;;;;4275972;33;20075;-79
2023/06/27 05:17:24;;;;;;;6.87;4.30;;;;;;;;;;4278941;33;20041;-78
2023/06/27 05:19:51;;;;;;;8.40;4.57;;;;;;;;;;4265767;33;20426;-78
2023/06/27 05:22:19;;;;;;;16.30;4.12;;;;;;;;;;4264168;33;20038;-79
2023/06/27 05:24:46;;;;;;;13.77;5.22;;;;;;;;;;4271195;33;20145;-79
2023/06/27 05:27:12;;;;;;;8.90;4.03;;;;;;;;;;4278804;33;20053;-78
2023/06/27 05:29:38;;;;;;;9.40;3.87;;;;;;;;;;4292393;33;20038;-78
2023/06/27 05:32:04;;;;;;;14.20;4.47;;;;;;;;;;4295677;33;20075;-79
2023/06/27 05:34:32;;;;;;;11.20;3.95;;;;;;;;;;4289275;33;20045;-77
2023/06/27 05:36:58;;;;;;;7.32;3.60;;;;;;;;;;4287698;33;20053;-78
2023/06/27 05:39:25;;;;;;;10.35;3.75;;;;;;;;;;4291920;33;20214;-78
2023/06/27 05:41:51;;;;;;;11.32;3.62;;;;;;;;;;4292222;33;20100;-78
2023/06/27 05:44:18;;;;;;;14.48;4.45;;;;;;;;;;4291976;33;20083;-77
2023/06/27 05:46:48;;;;;;;8.38;3.40;;;;;;;;;;4274972;33;20071;-76
2023/06/27 05:49:15;;;;;;;8.50;4.07;;;;;;;;;;4271033;33;20054;-77
2023/06/27 05:51:40;;;;;;;16.30;4.28;;;;;;;;;;4258338;33;20034;-76
2023/06/27 05:54:08;;;;;;;7.70;3.53;;;;;;;;;;4252992;33;20064;-77
2023/06/27 05:56:34;;;;;;;6.50;3.30;;;;;;;;;;4285334;33;20038;-76
2023/06/27 05:59:00;;;;;;;6.50;3.17;;;;;;;;;;4290286;33;20096;-76
2023/06/27 06:01:26;;;;;;;8.77;3.08;;;;;;;;;;4299045;33;20070;-76
2023/06/27 06:03:55;;;;;;;10.63;4.47;;;;;;;;;;4307011;33;20608;-77
2023/06/27 06:06:21;;;;;;;8.35;3.50;;;;;;;;;;4307743;33;20394;-75
2023/06/27 06:08:50;;;;;;;7.90;3.55;;;;;;;;;;4304513;33;20075;-77
2023/06/27 06:11:17;;;;;;;10.23;3.60;;;;;;;;;;4306176;33;20071;-77
2023/06/27 06:13:43;;;;;;;10.13;3.25;;;;;;;;;;4330821;33;20052;-77
2023/06/27 06:16:09;;;;;;;11.55;3.28;;;;;;;;;;4334041;33;20067;-76
2023/06/27 06:18:36;;;;;;;5.32;3.00;;;;;;;;;;4335859;33;20074;-77
2023/06/27 06:21:02;;;;;;;7.80;3.40;;;;;;;;;;4337072;33;20036;-76
2023/06/27 06:23:28;;;;;;;8.27;4.03;;;;;;;;;;4337952;33;20382;-76
2023/06/27 06:25:55;;;;;;;7.32;2.70;;;;;;;;;;4334579;32;20074;-76
2023/06/27 06:28:21;;;;;;;6.50;3.58;;;;;;;;;;4339669;33;20090;-77
2023/06/27 06:30:47;;;;;;;6.62;2.40;;;;;;;;;;4340760;33;20060;-76
2023/06/27 06:33:13;;;;;;;6.68;2.67;;;;;;;;;;4323046;33;20045;-76
2023/06/27 06:35:39;;;;;;;3.42;2.22;;;;;;;;;;4323922;33;20044;-76
2023/06/27 06:38:05;;;;;;;6.75;2.37;;;;;;;;;;4322085;33;20044;-75
2023/06/27 06:40:32;;;;;;;4.37;2.28;;;;;;;;;;4323433;33;20044;-76
2023/06/27 06:42:58;;;;;;;6.43;3.62;;;;;;;;;;4314504;33;20523;-75
2023/06/27 06:45:24;;;;;;;14.65;3.97;;;;;;;;;;4313823;33;20419;-76
2023/06/27 06:47:52;;;;;;;2.15;1.70;;;;;;;;;;4320013;33;20060;-76
2023/06/27 06:50:18;;;;;;;4.75;2.20;;;;;;;;;;4322197;33;20056;-75
2023/06/27 06:52:44;;;;;;;9.02;1.90;;;;;;;;;;4321693;33;20041;-76
2023/06/27 06:55:10;;;;;;;9.00;2.62;;;;;;;;;;4321337;33;20048;-76
2023/06/27 06:57:37;;;;;;;6.65;2.00;;;;;;;;;;4323403;33;20092;-77
2023/06/27 07:00:04;;;;;;;5.32;2.08;;;;;;;;;;4326618;33;20062;-76
2023/06/27 07:02:30;;;;;;;10.98;2.33;;;;;;;;;;4321539;33;20056;-74
2023/06/27 07:04:56;;;;;;;6.78;2.37;;;;;;;;;;4330616;33;20040;-75
2023/06/27 07:07:23;;;;;;;7.25;2.70;;;;;;;;;;4333067;33;20486;-76
2023/06/27 07:09:49;;;;;;;4.18;1.73;;;;;;;;;;4337795;32;20226;-77
2023/06/27 07:12:15;;;;;;;6.85;1.83;;;;;;;;;;4307011;33;20036;-76
2023/06/27 07:14:41;;;;;;;13.70;2.15;;;;;;;;;;4306238;33;20099;-75
2023/06/27 07:17:08;;;;;;;11.77;1.70;;;;;;;;;;4293246;33;20074;-75
2023/06/27 07:22:06;;;;;;;3.17;1.73;;;;;;;;;;4294706;33;20049;-75
2023/06/27 07:24:32;;;;;;;5.32;1.83;;;;;;;;;;4293348;33;20049;-76
2023/06/27 07:26:58;;;;;;;5.95;1.90;;;;;;;;;;4292059;33;20065;-75
2023/06/27 07:29:24;;;;;;;2.12;1.87;;;;;;;;;;4295502;33;20167;-75
2023/06/27 07:31:51;;;;;;;6.60;1.75;;;;;;;;;;4294402;33;20533;-76
2023/06/27 07:34:17;;;;;;;5.30;1.73;;;;;;;;;;4301908;33;20184;-75
2023/06/27 07:36:43;;;;;;;6.60;2.03;;;;;;;;;;4293500;33;20057;-74
2023/06/27 07:39:10;;;;;;;5.45;1.83;;;;;;;;;;4292124;33;20548;-77
2023/06/27 07:41:36;;;;;;;7.70;1.83;;;;;;;;;;4291092;33;20432;-78
2023/06/27 07:44:02;;;;;;;6.25;1.83;;;;;;;;;;4315336;33;20083;-76
2023/06/27 07:46:29;;;;;;;5.30;1.85;;;;;;;;;;4321358;33;20060;-77
2023/06/27 07:48:59;;;;;;;6.25;1.62;;;;;;;;;;4320094;33;20227;-75
2023/06/27 07:51:28;;;;;;;8.63;1.70;;;;;;;;;;4322862;33;20074;-77
2023/06/27 07:53:56;;;;;;;3.28;1.58;;;;;;;;;;4320591;33;20045;-77
2023/06/27 07:56:22;;;;;;;5.15;1.95;;;;;;;;;;4315940;33;21007;-76
2023/06/27 07:58:48;;;;;;;11.02;1.60;;;;;;;;;;4321645;33;20036;-77
2023/06/27 08:01:15;;;;;;;5.25;2.03;;;;;;;;;;4327852;33;20395;-77
2023/06/27 08:03:41;;;;;;;1.52;1.42;;;;;;;;;;4322221;33;20195;-77
2023/06/27 08:06:07;;;;;;;10.10;1.98;;;;;;;;;;4294123;33;20049;-78
2023/06/27 08:08:36;;;;;;;4.03;1.35;;;;;;;;;;4295962;33;20344;-76
2023/06/27 08:11:03;;;;;;;2.05;1.27;;;;;;;;;;4318297;33;20065;-78
2023/06/27 08:13:28;;;;;;;8.32;2.50;;;;;;;;;;4321876;33;20029;-75
2023/06/27 08:15:55;;;;;;;4.20;1.55;;;;;;;;;;4319914;33;20746;-75
2023/06/27 08:18:21;;;;;;;2.35;1.70;;;;;;;;;;4307519;33;20775;-76
2023/06/27 08:20:47;;;;;;;6.03;1.50;;;;;;;;;;4307124;33;20099;-75
2023/06/27 08:23:13;;;;;;;7.15;1.90;;;;;;;;;;4307764;33;20056;-75
2023/06/27 08:25:40;;;;;;;10.38;1.65;;;;;;;;;;4295336;33;20071;-75
2023/06/27 08:28:05;;;;;;;1.95;1.30;;;;;;;;;;4291870;33;20044;-75
2023/06/27 08:34:13;;;;;;;4.78;1.60;;;;;;;;;;4293733;33;20049;-75
2023/06/27 08:36:40;;;;;;;5.20;1.75;;;;;;;;;;4300770;33;20410;-75
2023/06/27 08:39:05;;;;;;;6.68;1.40;;;;;;;;;;4307866;33;20340;-75
2023/06/27 08:41:32;;;;;;;8.63;2.78;;;;;;;;;;4293642;33;20354;-75
2023/06/27 08:43:58;;;;;;;8.35;1.80;;;;;;;;;;4293378;33;20458;-75
2023/06/27 08:46:25;;;;;;;5.07;1.42;;;;;;;;;;4296904;33;20052;-75
2023/06/27 08:48:52;;;;;;;6.57;1.30;;;;;;;;;;4307498;33;20041;-75
2023/06/27 08:51:21;;;;;;;2.53;1.10;;;;;;;;;;4306395;33;20041;-75
2023/06/27 08:53:48;;;;;;;4.00;1.62;;;;;;;;;;4307781;33;20028;-75
2023/06/27 08:56:16;;;;;;;6.72;1.60;;;;;;;;;;4315667;33;20055;-76
2023/06/27 08:58:46;;;;;;;5.97;1.60;;;;;;;;;;4307712;33;20029;-75
2023/06/27 09:01:12;;;;;;;3.83;1.95;;;;;;;;;;4315657;33;20060;-75
2023/06/27 09:03:38;;;;;;;2.05;1.40;;;;;;;;;;4322626;33;20040;-75
2023/06/27 09:06:06;;;;;;;6.60;1.62;;;;;;;;;;4322640;33;20062;-75
2023/06/27 09:08:32;;;;;;;5.07;1.55;;;;;;;;;;4322404;33;20074;-76
2023/06/27 09:10:58;;;;;;;8.70;3.00;;;;;;;;;;4320233;33;20040;-75
2023/06/27 09:13:25;;;;;;;7.80;1.90;;;;;;;;;;4302375;33;20065;-76
2023/06/27 09:15:51;;;;;;;9.65;2.12;;;;;;;;;;4307241;33;20084;-77
2023/06/27 09:18:17;;;;;;;4.85;1.60;;;;;;;;;;4304172;33;20382;-77
2023/06/27 09:20:44;;;;;;;4.70;1.60;;;;;;;;;;4306875;33;20048;-74
2023/06/27 09:23:11;;;;;;;9.50;1.33;;;;;;;;;;4305333;33;20228;-74
2023/06/27 09:25:37;;;;;;;3.83;1.60;;;;;;;;;;4306702;33;20049;-74
2023/06/27 09:28:18;;;;;;;4.03;1.58;;;;;;;;;;4307204;33;20058;-74
2023/06/27 09:30:52;;;;;;;10.95;1.40;;;;;;;;;;4291546;33;20053;-74
2023/06/27 09:33:19;;;;;;;8.07;1.73;;;;;;;;;;4292886;33;20045;-74
2023/06/27 09:35:45;;;;;;;12.90;1.73;;;;;;;;;;4287123;33;20108;-74
2023/06/27 09:38:11;;;;;;;16.62;1.75;;;;;;;;;;4285257;33;20041;-73
2023/06/27 09:40:37;;;;;;;3.80;1.52;;;;;;;;;;4283893;33;20045;-73
2023/06/27 09:43:07;;;;;;;8.80;1.65;;;;;;;;;;4270418;33;20556;-74
2023/06/27 09:45:33;;;;;;;6.00;1.98;;;;;;;;;;4299320;33;20112;-74
2023/06/27 09:47:59;;;;;;;1.30;1.17;;;;;;;;;;4299780;33;20086;-73
2023/06/27 09:50:31;;;;;;;8.27;1.55;;;;;;;;;;4300404;33;20508;-73
2023/06/27 09:52:59;;;;;;;9.10;1.10;;;;;;;;;;4303815;33;20055;-78
2023/06/27 09:55:26;;;;;;;5.18;1.70;;;;;;;;;;4305098;33;20102;-75
2023/06/27 09:57:52;;;;;;;4.40;1.85;;;;;;;;;;4286329;33;20077;-75
2023/06/27 10:00:22;;;;;;;6.65;1.50;;;;;;;;;;4253187;33;20058;-75
2023/06/27 10:02:49;;;;;;;2.78;1.35;;;;;;;;;;4290712;33;20075;-75
2023/06/27 10:05:17;;;;;;;11.32;1.48;;;;;;;;;;4252104;33;20528;-74
2023/06/27 10:07:43;;;;;;;4.30;1.30;;;;;;;;;;4251515;33;20191;-75
2023/06/27 10:10:11;;;;;;;4.50;1.17;;;;;;;;;;4254891;33;20157;-74
2023/06/27 10:12:37;;;;;;;3.62;1.40;;;;;;;;;;4258847;33;20034;-75
2023/06/27 10:15:04;;;;;;;9.93;1.33;;;;;;;;;;4259010;33;20396;-74
2023/06/27 10:17:31;;;;;;;13.50;2.10;;;;;;;;;;4257914;33;20116;-75
2023/06/27 10:19:58;;;;;;;1.58;1.48;;;;;;;;;;4254500;33;20622;-75
2023/06/27 10:22:29;;;;;;;3.60;1.05;;;;;;;;;;4255609;33;20050;-74
2023/06/27 10:25:02;;;;;;;4.95;1.33;;;;;;;;;;4256129;33;20124;-74
2023/06/27 10:27:31;;;;;;;21.90;3.55;;;;;;;;;;4256632;33;20054;-74
2023/06/27 10:29:58;;;;;;;5.03;1.73;;;;;;;;;;4277538;33;20061;-73
2023/06/27 10:32:35;;;;;;;2.72;1.17;;;;;;;;;;4305173;33;20559;-74
2023/06/27 10:35:08;;;;;;;4.57;1.25;;;;;;;;;;4278835;33;20416;-73
2023/06/27 10:37:34;;;;;;;7.75;1.48;;;;;;;;;;4298425;33;20047;-73
2023/06/27 10:40:00;;;;;;;4.68;1.25;;;;;;;;;;4307768;33;20092;-73
2023/06/27 10:42:28;;;;;;;3.25;1.08;;;;;;;;;;4305846;33;20214;-74
2023/06/27 10:45:05;;;;;;;12.05;1.65;;;;;;;;;;4302149;33;20075;-74
2023/06/27 10:47:34;;;;;;;3.60;1.20;;;;;;;;;;4287235;33;20093;-73
2023/06/27 10:50:03;;;;;;;6.40;1.20;;;;;;;;;;4290223;33;20092;-73
2023/06/27 10:52:29;;;;;;;14.93;1.40;;;;;;;;;;4289293;33;20041;-74
2023/06/27 10:55:13;;;;;;;6.18;1.70;;;;;;;;;;4290499;33;20080;-73
2023/06/27 10:57:40;;;;;;;3.05;1.30;;;;;;;;;;4292055;33;20049;-73
2023/06/27 11:03:18;;;;;;;1.25;1.12;;;;;;;;;;4271608;33;20141;-74
2023/06/27 11:05:57;;;;;;;12.25;1.85;;;;;;;;;;4283743;33;20118;-74
2023/06/27 11:08:26;;;;;;;7.12;1.30;;;;;;;;;;4276923;33;20034;-73
2023/06/27 11:10:59;;;;;;;2.10;1.20;;;;;;;;;;4278148;33;20105;-73
2023/06/27 11:13:27;;;;;;;3.97;1.20;;;;;;;;;;4283452;33;20049;-73
2023/06/27 11:15:54;;;;;;;8.52;1.30;;;;;;;;;;4308406;33;20078;-72
2023/06/27 11:18:25;;;;;;;8.07;1.50;;;;;;;;;;4330427;33;20037;-73
2023/06/27 11:20:51;;;;;;;6.90;1.50;;;;;;;;;;4322288;33;20476;-73
2023/06/27 11:23:20;;;;;;;14.13;2.15;;;;;;;;;;4321196;33;20040;-76
2023/06/27 11:25:46;;;;;;;8.25;1.35;;;;;;;;;;4334881;33;20460;-74
2023/06/27 11:28:12;;;;;;;6.35;1.58;;;;;;;;;;4337437;33;20036;-74
2023/06/27 11:30:39;;;;;;;4.60;1.60;;;;;;;;;;4294541;33;20151;-73
2023/06/27 11:33:06;;;;;;;16.92;1.58;;;;;;;;;;4285190;33;20057;-73
2023/06/27 11:35:33;;;;;;;5.53;1.58;;;;;;;;;;4274342;33;20124;-74
2023/06/27 11:38:00;;;;;;;2.30;1.40;;;;;;;;;;4292188;33;20112;-73
2023/06/27 11:40:26;;;;;;;3.03;1.30;;;;;;;;;;4291580;33;20053;-76
2023/06/27 11:43:06;;;;;;;7.90;1.77;;;;;;;;;;4293668;33;20067;-75
2023/06/27 11:45:33;;;;;;;7.05;1.42;;;;;;;;;;4285581;33;20422;-74
2023/06/27 11:48:02;;;;;;;4.53;1.55;;;;;;;;;;4290987;33;20167;-73
2023/06/27 11:50:28;;;;;;;4.80;1.50;;;;;;;;;;4291453;33;20057;-73
2023/06/27 11:52:55;;;;;;;15.98;1.50;;;;;;;;;;4292771;33;20044;-74
2023/06/27 11:55:22;;;;;;;7.43;1.23;;;;;;;;;;4290409;33;20205;-75
2023/06/27 11:57:51;;;;;;;3.92;1.27;;;;;;;;;;4289626;33;20081;-75
2023/06/27 12:00:19;;;;;;;2.62;1.08;;;;;;;;;;4288376;33;21252;-75
2023/06/27 12:02:49;;;;;;;4.80;1.77;;;;;;;;;;4313714;33;20044;-74
2023/06/27 12:05:24;;;;;;;6.47;1.62;;;;;;;;;;4297992;33;20536;-75
2023/06/27 12:08:08;;;;;;;3.45;2.00;;;;;;;;;;4300653;33;20090;-74
2023/06/27 12:10:48;;;;;;;6.95;1.20;;;;;;;;;;4297522;33;20330;-75
2023/06/27 12:13:14;;;;;;;12.35;1.60;;;;;;;;;;4315777;33;20040;-75
2023/06/27 12:15:45;;;;;;;1.73;1.33;;;;;;;;;;4329166;33;20197;-75
2023/06/27 12:18:19;;;;;;;4.18;1.65;;;;;;;;;;4325737;33;20032;-74
2023/06/27 12:20:52;;;;;;;9.95;1.95;;;;;;;;;;4319294;33;20105;-75
2023/06/27 12:23:19;;;;;;;7.45;2.72;;;;;;;;;;4318153;33;20970;-75
2023/06/27 12:25:45;;;;;;;7.07;1.90;;;;;;;;;;4319402;33;20082;-76
2023/06/27 12:28:12;;;;;;;3.28;1.25;;;;;;;;;;4317891;33;20032;-76
2023/06/27 12:30:39;;;;;;;5.82;1.70;;;;;;;;;;4319762;33;20049;-75
2023/06/27 12:33:05;;;;;;;15.88;1.83;;;;;;;;;;4317434;33;20121;-76
2023/06/27 12:35:32;;;;;;;4.68;1.50;;;;;;;;;;4320521;33;20093;-76
2023/06/27 12:37:58;;;;;;;3.75;1.30;;;;;;;;;;4325830;33;20447;-77
2023/06/27 12:40:25;;;;;;;3.62;1.55;;;;;;;;;;4321529;33;20135;-77
2023/06/27 12:42:51;;;;;;;6.12;1.30;;;;;;;;;;4317322;33;20064;-77
2023/06/27 12:45:18;;;;;;;5.15;1.23;;;;;;;;;;4319721;33;20087;-76
2023/06/27 12:47:45;;;;;;;3.35;1.20;;;;;;;;;;4322641;33;20119;-77
2023/06/27 12:50:18;;;;;;;0.80;0.80;;;;;;;;;;4323518;33;20061;-76
2023/06/27 12:52:49;;;;;;;2.28;1.05;;;;;;;;;;4350488;32;20481;-81
2023/06/27 12:55:15;;;;;;;2.50;1.40;;;;;;;;;;4348726;33;20486;-77
2023/06/27 12:57:42;;;;;;;2.00;1.48;;;;;;;;;;4352771;32;20074;-76
2023/06/27 13:00:09;;;;;;;3.97;1.35;;;;;;;;;;4353598;32;20179;-78
2023/06/27 13:02:38;;;;;;;4.70;1.37;;;;;;;;;;4368159;32;20090;-79
2023/06/27 13:05:05;;;;;;;1.75;0.98;;;;;;;;;;4381796;32;20100;-76
2023/06/27 13:07:32;;;;;;;14.65;1.48;;;;;;;;;;4337339;32;20880;-79
2023/06/27 13:09:59;;;;;;;5.07;1.23;;;;;;;;;;4322582;33;20098;-78
2023/06/27 13:12:25;;;;;;;6.47;1.20;;;;;;;;;;4327874;33;20068;-79
2023/06/27 13:14:52;;;;;;;4.37;1.12;;;;;;;;;;4326737;33;20386;-79
2023/06/27 13:17:23;;;;;;;;;;;;;;;;;;4271568;33;20087;-76
2023/06/27 13:19:49;;;;;;;7.60;1.58;;;;;;;;;;4287965;33;20650;-77
2023/06/27 13:22:16;;;;;;;2.72;1.40;;;;;;;;;;4286604;33;20451;-77
2023/06/27 13:24:44;;;;;;;4.00;1.05;;;;;;;;;;4291769;33;20046;-78
2023/06/27 13:27:09;;;;;;;4.93;1.30;;;;;;;;;;4293258;33;20086;-79
2023/06/27 13:29:36;;;;;;;4.45;1.30;;;;;;;;;;4287456;33;20444;-78
2023/06/27 13:32:02;;;;;;;5.75;2.25;;;;;;;;;;4266340;33;20084;-79
2023/06/27 13:34:28;;;;;;;6.12;1.40;;;;;;;;;;4293384;33;20074;-76
2023/06/27 13:36:55;;;;;;;1.35;1.23;;;;;;;;;;4296128;33;20080;-78
2023/06/27 13:39:21;;;;;;;1.87;1.20;;;;;;;;;;4314527;33;20062;-75
2023/06/27 13:41:48;;;;;;;3.05;1.15;;;;;;;;;;4283696;33;20110;-79
2023/06/27 13:44:14;;;;;;;2.15;0.98;;;;;;;;;;4280494;33;20197;-79
2023/06/27 13:46:40;;;;;;;5.35;1.75;;;;;;;;;;4280250;33;20037;-81
2023/06/27 13:49:09;;;;;;;1.35;1.00;;;;;;;;;;4304015;33;20183;-78
2023/06/27 13:51:35;;;;;;;4.85;1.05;;;;;;;;;;4305751;33;20092;-77
2023/06/27 13:54:02;;;;;;;5.72;1.27;;;;;;;;;;4310179;33;21137;-75
2023/06/27 13:56:28;;;;;;;6.65;0.93;;;;;;;;;;4310243;33;20913;-77
2023/06/27 13:58:55;;;;;;;7.80;1.12;;;;;;;;;;4279305;33;20077;-76
2023/06/27 14:01:21;;;;;;;8.95;1.45;;;;;;;;;;4278040;33;20072;-74
2023/06/27 14:03:48;;;;;;;1.80;1.30;;;;;;;;;;4280643;33;20069;-77
2023/06/27 14:06:14;;;;;;;3.17;1.20;;;;;;;;;;4279839;33;20112;-78
2023/06/27 14:08:41;;;;;;;2.10;1.12;;;;;;;;;;4269389;33;20065;-77
2023/06/27 14:11:14;;;;;;;1.45;0.95;;;;;;;;;;4263374;33;20084;-77
2023/06/27 14:13:43;;;;;;;3.37;1.40;;;;;;;;;;4263088;33;20096;-77
2023/06/27 14:16:10;;;;;;;5.97;1.00;;;;;;;;;;4273400;33;20057;-79
2023/06/27 14:18:36;;;;;;;2.90;1.37;;;;;;;;;;4277187;33;20053;-77
2023/06/27 14:21:08;;;;;;;7.93;1.58;;;;;;;;;;4278542;33;20062;-76
2023/06/27 14:23:36;;;;;;;5.65;1.60;;;;;;;;;;4278743;33;20105;-76
2023/06/27 14:26:03;;;;;;;3.30;1.27;;;;;;;;;;4278442;33;20075;-79
2023/06/27 14:28:30;;;;;;;2.10;1.17;;;;;;;;;;4305559;33;20080;-77
2023/06/27 14:30:58;;;;;;;2.15;1.35;;;;;;;;;;4335819;33;20560;-77
2023/06/27 14:33:24;;;;;;;3.92;1.10;;;;;;;;;;4340537;32;20107;-77
2023/06/27 14:35:51;;;;;;;1.80;1.70;;;;;;;;;;4335987;32;20069;-76
2023/06/27 14:38:18;;;;;;;5.35;1.55;;;;;;;;;;4346001;33;20052;-76
2023/06/27 14:40:45;;;;;;;2.37;1.45;;;;;;;;;;4352105;32;20039;-76
2023/06/27 14:43:12;;;;;;;4.45;1.23;;;;;;;;;;4348952;32;20074;-76
2023/06/27 14:45:41;;;;;;;8.23;1.85;;;;;;;;;;4341573;32;20031;-74
2023/06/27 14:48:08;;;;;;;3.22;1.55;;;;;;;;;;4340936;32;20079;-78
2023/06/27 14:50:35;;;;;;;4.62;1.42;;;;;;;;;;4342583;33;20051;-78
2023/06/27 14:53:04;;;;;;;4.60;1.27;;;;;;;;;;4351346;32;20052;-78
2023/06/27 14:55:31;;;;;;;1.80;1.15;;;;;;;;;;4335161;32;20117;-78
2023/06/27 14:57:58;;;;;;;5.35;1.15;;;;;;;;;;4335072;33;20089;-78
2023/06/27 15:00:24;;;;;;;3.35;1.27;;;;;;;;;;4336061;33;20074;-78
2023/06/27 15:02:50;;;;;;;3.53;1.00;;;;;;;;;;4345417;32;20040;-78
2023/06/27 15:05:16;;;;;;;6.95;1.50;;;;;;;;;;4349762;32;20475;-80
2023/06/27 15:07:43;;;;;;;4.70;1.55;;;;;;;;;;4348103;32;20178;-77
2023/06/27 15:10:09;;;;;;;4.12;1.45;;;;;;;;;;4346588;32;20095;-78
2023/06/27 15:12:36;;;;;;;4.68;1.20;;;;;;;;;;4349462;32;20048;-79
2023/06/27 15:15:03;;;;;;;4.45;1.15;;;;;;;;;;4347897;32;20036;-80
2023/06/27 15:17:30;;;;;;;4.85;1.35;;;;;;;;;;4348187;32;20048;-80
2023/06/27 15:19:56;;;;;;;1.55;1.10;;;;;;;;;;4342355;32;20095;-77
2023/06/27 15:22:24;;;;;;;6.12;1.37;;;;;;;;;;4302802;33;20056;-79
2023/06/27 15:24:50;;;;;;;5.78;1.48;;;;;;;;;;4301021;33;20374;-77
2023/06/27 15:27:17;;;;;;;4.60;1.20;;;;;;;;;;4299802;33;20087;-78
2023/06/27 15:29:43;;;;;;;9.63;1.25;;;;;;;;;;4296793;33;20108;-78
2023/06/27 15:32:10;;;;;;;1.10;1.02;;;;;;;;;;4294596;33;20139;-78
2023/06/27 15:34:39;;;;;;;8.13;2.40;;;;;;;;;;4294071;33;20064;-78
2023/06/27 15:37:06;;;;;;;4.82;1.60;;;;;;;;;;4297377;33;20068;-77
2023/06/27 15:39:32;;;;;;;3.20;1.70;;;;;;;;;;4300037;33;20180;-78
2023/06/27 15:41:58;;;;;;;7.03;1.20;;;;;;;;;;4300673;33;20063;-75
2023/06/27 15:44:25;;;;;;;6.68;1.95;;;;;;;;;;4298494;33;20709;-79
2023/06/27 15:46:52;;;;;;;1.37;1.10;;;;;;;;;;4297482;33;20053;-78
2023/06/27 15:49:18;;;;;;;2.33;1.10;;;;;;;;;;4308483;33;20062;-76
2023/06/27 15:51:45;;;;;;;8.57;2.42;;;;;;;;;;4308210;33;20114;-76
2023/06/27 15:54:13;;;;;;;3.83;1.58;;;;;;;;;;4328462;33;20493;-75
2023/06/27 15:56:40;;;;;;;8.00;1.55;;;;;;;;;;4337551;33;20040;-78
2023/06/27 15:59:06;;;;;;;3.05;1.55;;;;;;;;;;4337649;33;20063;-78
2023/06/27 16:01:33;;;;;;;11.82;1.70;;;;;;;;;;4342455;32;20060;-77
2023/06/27 16:03:59;;;;;;;3.55;1.33;;;;;;;;;;4351531;32;20416;-75
2023/06/27 16:06:30;;;;;;;3.08;1.20;;;;;;;;;;4353006;32;20120;-76
2023/06/27 16:08:57;;;;;;;7.05;1.50;;;;;;;;;;4354128;32;20064;-78
2023/06/27 16:11:23;;;;;;;4.20;1.60;;;;;;;;;;4349546;32;20058;-75
2023/06/27 16:13:49;;;;;;;9.43;2.42;;;;;;;;;;4349411;32;20372;-76
2023/06/27 16:16:16;;;;;;;3.90;1.77;;;;;;;;;;4332544;32;20109;-76
2023/06/27 16:18:42;;;;;;;4.65;1.98;;;;;;;;;;4337870;32;20055;-77
2023/06/27 16:21:08;;;;;;;2.95;1.25;;;;;;;;;;4336503;33;20454;-76
2023/06/27 16:23:34;;;;;;;6.90;1.73;;;;;;;;;;4322898;33;20227;-78
2023/06/27 16:26:02;;;;;;;3.87;1.60;;;;;;;;;;4337041;33;20589;-76
2023/06/27 16:28:28;;;;;;;3.10;1.58;;;;;;;;;;4335067;33;20041;-74
2023/06/27 16:30:54;;;;;;;11.30;1.37;;;;;;;;;;4335818;33;20086;-75
2023/06/27 16:33:22;;;;;;;13.98;1.30;;;;;;;;;;4337090;33;20399;-75
2023/06/27 16:35:48;;;;;;;5.93;1.50;;;;;;;;;;4335797;33;20070;-73
2023/06/27 16:38:14;;;;;;;5.37;1.67;;;;;;;;;;4335726;33;20056;-74
2023/06/27 16:40:41;;;;;;;5.37;2.20;;;;;;;;;;4333414;33;20040;-75
2023/06/27 16:43:07;;;;;;;4.68;1.95;;;;;;;;;;4335966;33;20187;-75
2023/06/27 16:45:33;;;;;;;3.75;2.03;;;;;;;;;;4334233;32;20061;-75
2023/06/27 16:48:00;;;;;;;5.18;1.10;;;;;;;;;;4349565;32;20051;-75